Time;durP1;ratioP1;P1;durP2;ratioP2;P2;SDS_P1;SDS_P2;PMS_P1;PMS_P2;Temp;Humidity;BMP_temperature;BMP_pressure;BME280_temperature;BME280_humidity;BME280_pressure;Samples;Min_cycle;Max_cycle;Signal;HPM_P1;HPM_P2
2022/08/07 00:01:12;;;;;;;4.72;4.22;;;;;;;14.25;66.36;101996.06;4901189;29;20594;-83
2022/08/07 00:03:39;;;;;;;7.40;3.45;;;;;;;14.23;66.31;101993.41;4932297;29;20040;-88
2022/08/07 00:06:06;;;;;;;6.35;5.30;;;;;;;14.26;66.41;101992.53;4939013;29;20048;-86
2022/08/07 00:08:33;;;;;;;6.00;4.93;;;;;;;14.26;66.80;101995.16;4934550;29;20051;-84
2022/08/07 00:10:59;;;;;;;6.53;4.20;;;;;;;14.26;66.76;101984.63;4928752;29;20066;-84
2022/08/07 00:13:26;;;;;;;6.15;4.32;;;;;;;14.26;66.71;101986.41;4920980;29;20048;-89
2022/08/07 00:15:54;;;;;;;13.02;7.20;;;;;;;14.23;66.85;101984.66;4915708;29;20043;-83
2022/08/07 00:18:28;;;;;;;7.80;5.55;;;;;;;14.21;66.71;101987.28;4899007;29;20440;-85
2022/08/07 00:21:01;;;;;;;9.35;6.20;;;;;;;14.21;66.89;101987.28;4902394;29;20040;-85
2022/08/07 00:23:32;;;;;;;7.60;5.80;;;;;;;14.22;67.21;101983.78;4936546;29;20531;-83
2022/08/07 00:26:02;;;;;;;8.82;6.50;;;;;;;14.27;66.48;101980.25;4913496;29;20055;-87
2022/08/07 00:28:30;;;;;;;8.25;5.25;;;;;;;14.22;66.92;101980.25;4919739;29;20104;-81
2022/08/07 00:30:57;;;;;;;9.70;6.30;;;;;;;14.17;66.85;101980.28;4917509;29;20044;-82
2022/08/07 00:33:27;;;;;;;7.38;5.88;;;;;;;14.15;67.30;101979.41;4920695;29;20048;-83
2022/08/07 00:35:56;;;;;;;7.90;5.90;;;;;;;14.17;67.56;101982.03;4909964;29;20044;-85
2022/08/07 00:38:26;;;;;;;8.57;6.20;;;;;;;14.16;67.62;101975.88;4914885;29;20055;-84
2022/08/07 00:40:53;;;;;;;9.38;5.80;;;;;;;14.13;67.70;101975.91;4915997;29;20047;-83
2022/08/07 00:43:19;;;;;;;9.98;5.47;;;;;;;14.12;67.95;101989.06;4915074;29;20054;-84
2022/08/07 00:45:47;;;;;;;7.97;5.35;;;;;;;14.06;67.68;101976.78;4912119;29;20048;-87
2022/08/07 00:48:17;;;;;;;5.80;4.80;;;;;;;14.03;68.09;101980.31;4896979;29;20495;-85
2022/08/07 00:50:43;;;;;;;5.25;4.75;;;;;;;14.01;68.50;101982.06;4909842;29;20059;-85
2022/08/07 00:53:10;;;;;;;8.35;6.82;;;;;;;14.03;68.42;101988.22;4908588;29;20498;-83
2022/08/07 00:55:40;;;;;;;7.07;5.85;;;;;;;14.04;68.17;101976.81;4920362;29;20052;-86
2022/08/07 00:58:09;;;;;;;7.75;5.80;;;;;;;14.05;68.73;101978.56;4893965;29;20088;-91
2022/08/07 01:00:35;;;;;;;8.77;5.78;;;;;;;14.05;68.27;101970.66;4913541;29;20048;-84
2022/08/07 01:03:03;;;;;;;7.35;5.97;;;;;;;14.03;68.58;101984.72;4928718;29;20485;-86
2022/08/07 01:05:30;;;;;;;11.38;5.53;;;;;;;13.98;68.87;101989.97;4925832;29;20044;-84
2022/08/07 01:07:56;;;;;;;8.32;6.18;;;;;;;13.97;68.72;101989.97;4908832;29;20531;-88
2022/08/07 01:10:23;;;;;;;8.07;5.35;;;;;;;13.91;69.30;101988.25;4909594;29;20059;-84
2022/08/07 01:12:50;;;;;;;6.28;5.57;;;;;;;13.86;69.13;101987.38;4895873;29;20048;-84
2022/08/07 01:15:17;;;;;;;8.60;5.72;;;;;;;13.83;69.22;101985.63;4910377;29;20052;-83
2022/08/07 01:17:43;;;;;;;16.38;6.40;;;;;;;13.80;69.42;101995.28;4926096;29;20124;-83
2022/08/07 01:20:13;;;;;;;6.75;5.55;;;;;;;13.78;69.86;101989.13;4925385;29;20558;-84
2022/08/07 01:22:41;;;;;;;5.90;4.75;;;;;;;13.75;69.91;101981.22;4908672;29;20032;-84
2022/08/07 01:25:11;;;;;;;11.60;8.25;;;;;;;13.66;70.18;101987.38;4909149;29;20790;-87
2022/08/07 01:27:37;;;;;;;7.07;6.13;;;;;;;13.63;70.54;101985.63;4923576;29;20054;-83
2022/08/07 01:30:06;;;;;;;9.02;5.25;;;;;;;13.64;71.02;101984.75;4909898;29;20051;-91
2022/08/07 01:32:32;;;;;;;8.05;6.05;;;;;;;13.68;71.14;101988.25;4908897;29;20048;-92
2022/08/07 01:35:01;;;;;;;10.55;5.93;;;;;;;13.63;71.04;101976.84;4922758;29;20105;-86
2022/08/07 01:37:28;;;;;;;5.97;5.47;;;;;;;13.53;71.21;101976.88;4907340;29;20799;-83
2022/08/07 01:39:57;;;;;;;6.10;5.35;;;;;;;13.46;71.92;101971.59;4906984;29;20063;-88
2022/08/07 01:42:25;;;;;;;10.55;6.40;;;;;;;13.36;72.97;101981.19;4909139;29;20075;-83
2022/08/07 01:44:52;;;;;;;8.38;5.70;;;;;;;13.24;73.11;101974.16;4895652;29;20131;-85
2022/08/07 01:47:19;;;;;;;7.43;5.85;;;;;;;13.16;73.93;101975.91;4910999;29;20047;-86
2022/08/07 01:49:46;;;;;;;6.90;5.88;;;;;;;13.10;74.52;101976.75;4906578;29;20096;-84
2022/08/07 01:52:14;;;;;;;8.43;6.93;;;;;;;13.05;75.21;101963.63;4906289;29;20080;-85
2022/08/07 01:54:44;;;;;;;7.60;6.20;;;;;;;13.01;75.06;101972.41;4878278;29;20052;-86
2022/08/07 01:57:21;;;;;;;8.80;5.20;;;;;;;13.04;75.73;101971.53;4897260;29;20036;-89
2022/08/07 01:59:57;;;;;;;11.45;5.95;;;;;;;13.03;75.40;101965.38;4899045;29;20635;-82
2022/08/07 02:02:38;;;;;;;6.85;5.63;;;;;;;13.08;75.77;101968.03;4898096;29;20117;-89
2022/08/07 02:05:13;;;;;;;5.80;5.30;;;;;;;13.10;75.25;101965.38;4912583;29;20044;-88
2022/08/07 02:07:50;;;;;;;7.18;4.55;;;;;;;13.09;75.24;101967.16;4906619;29;20052;-88
2022/08/07 02:10:23;;;;;;;6.05;5.18;;;;;;;13.08;75.32;101966.25;4896421;29;20044;-82
2022/08/07 02:12:51;;;;;;;6.95;5.45;;;;;;;13.08;75.36;101962.75;4901732;29;20088;-84
2022/08/07 02:15:24;;;;;;;6.00;4.75;;;;;;;13.10;75.31;101962.75;4902392;29;20520;-82
2022/08/07 02:17:53;;;;;;;5.90;4.95;;;;;;;13.13;74.70;101961.00;4918548;29;20056;-87
2022/08/07 02:20:22;;;;;;;5.88;5.10;;;;;;;13.12;74.67;101961.03;4901848;29;20052;-85
2022/08/07 02:22:50;;;;;;;7.93;4.65;;;;;;;13.13;74.94;101954.88;4899955;29;20040;-83
2022/08/07 02:25:20;;;;;;;9.10;6.70;;;;;;;13.10;74.73;101954.88;4899858;29;20073;-85
2022/08/07 02:27:48;;;;;;;6.15;5.25;;;;;;;13.06;75.13;101957.50;4898559;29;20118;-84
2022/08/07 02:30:16;;;;;;;6.18;5.50;;;;;;;13.05;75.10;101950.50;4894636;29;20062;-83
2022/08/07 02:32:43;;;;;;;9.25;5.15;;;;;;;13.05;74.81;101954.88;4887634;29;20067;-85
2022/08/07 02:35:11;;;;;;;11.35;5.55;;;;;;;13.03;74.75;101949.59;4899578;29;20095;-85
2022/08/07 02:37:41;;;;;;;9.98;5.72;;;;;;;13.07;75.09;101953.13;4898498;29;20044;-85
2022/08/07 02:40:09;;;;;;;10.23;7.03;;;;;;;13.10;74.44;101947.84;4910169;29;20052;-84
2022/08/07 02:42:36;;;;;;;6.03;5.38;;;;;;;13.11;75.01;101941.72;4914274;29;20513;-82
2022/08/07 02:45:06;;;;;;;7.72;5.20;;;;;;;13.11;74.85;101948.75;4893866;29;20055;-84
2022/08/07 02:47:33;;;;;;;7.75;6.10;;;;;;;13.11;75.20;101941.72;4910534;29;20143;-89
2022/08/07 02:50:00;;;;;;;6.13;5.22;;;;;;;13.14;75.58;101943.47;4894508;29;20056;-86
2022/08/07 02:52:38;;;;;;;6.15;5.15;;;;;;;13.11;75.83;101943.50;4877010;29;20044;-83
2022/08/07 02:55:14;;;;;;;7.55;5.72;;;;;;;13.10;75.55;101947.84;4903181;29;20055;-86
2022/08/07 02:57:42;;;;;;;9.50;5.75;;;;;;;13.06;76.11;101944.38;4930378;29;20467;-83
2022/08/07 03:00:10;;;;;;;9.68;5.35;;;;;;;13.03;75.74;101940.84;4925197;29;20052;-83
2022/08/07 03:02:40;;;;;;;7.95;5.85;;;;;;;13.00;76.42;101938.22;4900788;29;20245;-83
2022/08/07 03:05:09;;;;;;;10.50;6.35;;;;;;;12.98;76.65;101937.34;4906914;29;20131;-86
2022/08/07 03:07:37;;;;;;;5.15;4.65;;;;;;;12.96;76.88;101941.69;4926329;29;20044;-84
2022/08/07 03:10:04;;;;;;;9.73;5.60;;;;;;;12.98;76.92;101946.06;4921215;29;20133;-85
2022/08/07 03:12:32;;;;;;;7.03;5.30;;;;;;;13.02;77.17;101937.34;4907791;29;21235;-86
2022/08/07 03:15:00;;;;;;;6.32;5.68;;;;;;;13.04;76.95;101939.97;4894129;29;20048;-86
2022/08/07 03:17:27;;;;;;;6.65;5.03;;;;;;;12.99;76.81;101944.34;4895831;29;20108;-86
2022/08/07 03:19:54;;;;;;;8.57;5.72;;;;;;;12.96;77.22;101942.59;4909628;29;20044;-92
2022/08/07 03:22:24;;;;;;;7.65;5.07;;;;;;;12.97;77.28;101943.47;4904026;29;20773;-84
2022/08/07 03:24:51;;;;;;;7.00;5.90;;;;;;;12.95;77.53;101939.97;4906351;29;20039;-85
2022/08/07 03:27:18;;;;;;;8.95;6.03;;;;;;;12.96;78.26;101945.22;4908958;29;20082;-82
2022/08/07 03:29:51;;;;;;;10.65;5.47;;;;;;;12.99;78.13;101942.59;4907599;29;20380;-83
2022/08/07 03:32:25;;;;;;;6.80;5.77;;;;;;;12.98;78.10;101953.97;4908321;29;20048;-84
2022/08/07 03:34:58;;;;;;;6.22;5.63;;;;;;;12.97;78.40;101951.34;4920329;29;20043;-84
2022/08/07 03:37:27;;;;;;;8.70;5.70;;;;;;;12.95;78.62;101950.47;4909529;29;20070;-86
2022/08/07 03:39:54;;;;;;;6.45;5.30;;;;;;;12.92;78.98;101948.72;4896563;29;20059;-86
2022/08/07 03:42:21;;;;;;;9.15;6.10;;;;;;;12.94;79.18;101951.34;4908120;29;20143;-84
2022/08/07 03:44:48;;;;;;;7.93;6.35;;;;;;;12.93;79.23;101945.19;4896474;29;20554;-86
2022/08/07 03:47:16;;;;;;;7.88;5.82;;;;;;;12.89;78.95;101946.06;4927742;29;20094;-84
2022/08/07 03:49:44;;;;;;;7.05;5.45;;;;;;;12.83;78.96;101951.34;4924218;29;20048;-87
2022/08/07 03:52:12;;;;;;;8.13;5.57;;;;;;;12.80;79.59;101952.19;4907255;29;20091;-89
2022/08/07 03:54:38;;;;;;;10.73;5.78;;;;;;;12.79;79.64;101947.81;4923459;29;20032;-85
2022/08/07 03:57:06;;;;;;;9.27;6.07;;;;;;;12.82;80.64;101949.56;4906828;29;20095;-86
2022/08/07 03:59:33;;;;;;;6.22;5.32;;;;;;;12.86;79.76;101944.31;4907493;29;20051;-84
2022/08/07 04:01:59;;;;;;;7.97;5.85;;;;;;;12.86;80.50;101944.31;4893372;29;20040;-86
2022/08/07 04:04:26;;;;;;;6.72;5.88;;;;;;;12.86;80.62;101954.81;4892336;29;20044;-82
2022/08/07 04:06:53;;;;;;;8.20;5.22;;;;;;;12.82;81.53;101950.44;4910377;29;20048;-84
2022/08/07 04:09:21;;;;;;;6.45;5.85;;;;;;;12.82;81.25;101953.06;4923994;29;20052;-84
2022/08/07 04:11:50;;;;;;;7.82;5.93;;;;;;;12.83;81.31;101953.97;4921223;29;20063;-89
2022/08/07 04:14:17;;;;;;;8.27;5.93;;;;;;;12.86;81.66;101951.31;4919520;29;20415;-89
2022/08/07 04:16:47;;;;;;;7.25;6.13;;;;;;;12.91;81.65;101949.59;4931159;29;20047;-84
2022/08/07 04:19:15;;;;;;;5.30;4.80;;;;;;;12.91;81.81;101947.81;4924316;29;20043;-90
2022/08/07 04:21:42;;;;;;;6.55;5.82;;;;;;;12.90;81.40;101953.94;4895841;29;20063;-90
2022/08/07 04:24:11;;;;;;;5.90;5.25;;;;;;;12.93;81.42;101952.22;4895725;29;20043;-83
2022/08/07 04:26:41;;;;;;;8.75;5.45;;;;;;;12.90;82.23;101947.81;4913225;29;20127;-83
2022/08/07 04:29:09;;;;;;;9.40;6.40;;;;;;;12.88;82.65;101949.56;4915581;29;20047;-83
2022/08/07 04:31:40;;;;;;;9.48;6.25;;;;;;;12.91;82.15;101949.59;4934038;29;20088;-85
2022/08/07 04:34:08;;;;;;;9.32;6.22;;;;;;;13.00;82.30;101954.00;4916955;29;20050;-86
2022/08/07 04:36:36;;;;;;;9.50;6.18;;;;;;;13.06;81.46;101951.34;4917334;29;20075;-92
2022/08/07 04:39:06;;;;;;;8.13;6.05;;;;;;;13.09;80.69;101954.00;4915083;29;20597;-89
2022/08/07 04:41:32;;;;;;;8.68;5.65;;;;;;;13.15;80.71;101961.88;4925555;29;20050;-83
2022/08/07 04:44:02;;;;;;;8.20;5.63;;;;;;;13.22;80.14;101963.66;4899020;29;20051;-88
2022/08/07 04:47:00;;;;;;;7.15;5.32;;;;;;;13.26;79.80;101958.38;4930162;29;20047;-84
2022/08/07 04:49:49;;;;;;;7.13;5.97;;;;;;;13.33;79.99;101963.66;4913823;29;20075;-86
2022/08/07 04:52:39;;;;;;;6.15;5.00;;;;;;;13.37;79.63;101964.56;4927717;29;20048;-87
2022/08/07 04:55:34;;;;;;;6.90;5.28;;;;;;;13.39;79.15;101968.97;4914361;29;20068;-87
2022/08/07 04:58:14;;;;;;;6.88;5.07;;;;;;;13.43;79.12;101968.94;4930518;29;20040;-84
2022/08/07 05:01:08;;;;;;;11.65;5.32;;;;;;;13.45;79.16;101951.44;4917605;29;20134;-83
2022/08/07 05:03:47;;;;;;;7.03;6.32;;;;;;;13.50;78.68;101962.81;4915076;29;20475;-88
2022/08/07 05:06:24;;;;;;;9.02;6.38;;;;;;;13.55;78.52;101955.81;4927247;29;20054;-83
2022/08/07 05:09:08;;;;;;;5.10;4.18;;;;;;;13.60;77.97;101948.78;4927238;29;20051;-84
2022/08/07 05:11:45;;;;;;;8.35;5.15;;;;;;;13.67;77.76;101947.03;4926859;29;20039;-86
2022/08/07 05:14:41;;;;;;;10.43;5.47;;;;;;;13.73;77.14;101947.91;4897262;29;20693;-83
2022/08/07 05:17:10;;;;;;;7.43;3.80;;;;;;;13.74;75.86;101954.06;4908228;29;20138;-90
2022/08/07 05:19:47;;;;;;;7.40;5.32;;;;;;;13.78;75.45;101953.16;4909600;29;20078;-89
2022/08/07 05:22:19;;;;;;;5.32;4.82;;;;;;;13.79;74.80;101954.03;4912779;29;20058;-88
2022/08/07 05:24:49;;;;;;;7.05;5.75;;;;;;;13.80;74.02;101955.78;4909494;29;20047;-84
2022/08/07 05:27:18;;;;;;;7.80;5.43;;;;;;;13.78;73.84;101949.63;4910932;29;20122;-85
2022/08/07 05:29:46;;;;;;;8.77;4.18;;;;;;;13.81;73.63;101958.41;4900720;29;20050;-85
2022/08/07 05:32:17;;;;;;;5.40;4.55;;;;;;;13.85;73.44;101956.66;4914687;29;20063;-87
2022/08/07 05:34:45;;;;;;;9.23;4.53;;;;;;;13.88;72.78;101959.28;4897072;29;20565;-87
2022/08/07 05:37:15;;;;;;;5.60;4.88;;;;;;;13.90;72.17;101962.78;4911490;29;20054;-83
2022/08/07 05:39:42;;;;;;;10.43;4.78;;;;;;;13.91;71.91;101961.91;4926968;29;20765;-83
2022/08/07 05:42:10;;;;;;;6.25;4.72;;;;;;;13.94;71.38;101961.03;4902869;29;20050;-87
2022/08/07 05:44:38;;;;;;;4.63;4.20;;;;;;;13.97;71.13;101963.66;4914462;29;20041;-88
2022/08/07 05:47:07;;;;;;;5.15;4.38;;;;;;;14.00;70.67;101964.53;4922134;29;20052;-85
2022/08/07 05:49:35;;;;;;;7.18;5.40;;;;;;;14.06;70.00;101966.25;4922170;29;20059;-86
2022/08/07 05:52:01;;;;;;;8.60;6.45;;;;;;;14.12;69.82;101954.81;4918126;29;20681;-85
2022/08/07 05:54:28;;;;;;;9.90;5.43;;;;;;;14.17;69.35;101967.13;4914261;29;20088;-81
2022/08/07 05:56:56;;;;;;;5.88;4.68;;;;;;;14.23;68.70;101966.22;4922531;29;20050;-84
2022/08/07 05:59:25;;;;;;;5.80;4.45;;;;;;;14.22;68.56;101969.72;4933774;29;20139;-85
2022/08/07 06:01:54;;;;;;;6.05;4.78;;;;;;;14.22;68.38;101967.97;4920307;29;20071;-84
2022/08/07 06:04:22;;;;;;;6.45;5.57;;;;;;;14.29;68.59;101967.94;4924970;29;20051;-85
2022/08/07 06:06:49;;;;;;;7.07;4.93;;;;;;;14.31;68.38;101968.81;4925290;29;20048;-89
2022/08/07 06:09:17;;;;;;;6.72;5.13;;;;;;;14.35;68.10;101973.19;4929269;29;20051;-88
2022/08/07 06:11:45;;;;;;;4.45;4.00;;;;;;;14.37;68.06;101977.56;4926473;29;20048;-88
2022/08/07 06:14:12;;;;;;;5.15;4.25;;;;;;;14.40;67.98;101976.69;4906938;29;20062;-84
2022/08/07 06:16:39;;;;;;;7.63;5.03;;;;;;;14.46;67.77;101975.81;4941699;29;20067;-84
2022/08/07 06:19:06;;;;;;;5.32;4.75;;;;;;;14.48;67.95;101979.31;4936282;29;20059;-80
2022/08/07 06:21:33;;;;;;;5.38;4.63;;;;;;;14.54;67.58;101980.16;4922135;29;20053;-86
2022/08/07 06:24:00;;;;;;;5.72;4.57;;;;;;;14.61;67.50;101982.75;4922737;29;20059;-93
2022/08/07 06:26:27;;;;;;;6.10;5.15;;;;;;;14.69;67.52;101987.16;4920174;29;20139;-89
2022/08/07 06:28:59;;;;;;;8.73;5.93;;;;;;;14.74;67.40;101987.13;4935274;29;20193;-83
2022/08/07 06:31:26;;;;;;;5.93;5.13;;;;;;;14.79;67.02;101981.84;4922301;29;20058;-85
2022/08/07 06:33:53;;;;;;;5.00;4.50;;;;;;;14.84;67.28;101977.41;4928653;29;20403;-83
2022/08/07 06:36:20;;;;;;;5.22;4.32;;;;;;;14.92;66.99;101985.28;4933224;29;20040;-88
2022/08/07 06:38:47;;;;;;;5.15;4.60;;;;;;;14.98;66.67;101979.94;4940437;29;20047;-83
2022/08/07 06:41:30;;;;;;;5.70;4.85;;;;;;;15.09;66.49;101972.00;4902434;29;20412;-83
2022/08/07 06:43:58;;;;;;;4.17;3.87;;;;;;;15.17;66.14;101981.59;4912219;29;20470;-83
2022/08/07 06:46:25;;;;;;;6.45;4.75;;;;;;;15.23;65.71;101972.78;4915332;29;20397;-84
2022/08/07 06:48:52;;;;;;;7.82;5.55;;;;;;;15.32;65.51;101977.97;4914453;29;20047;-93
2022/08/07 06:51:26;;;;;;;6.35;4.28;;;;;;;15.41;65.33;101977.03;4908543;29;20054;-88
2022/08/07 06:53:53;;;;;;;5.80;4.43;;;;;;;15.47;65.29;101971.69;4897443;29;20058;-88
2022/08/07 06:56:38;;;;;;;10.10;5.00;;;;;;;15.54;64.76;101972.53;4911665;29;20075;-85
2022/08/07 06:59:08;;;;;;;8.70;5.15;;;;;;;15.66;64.13;101971.56;4915220;29;20696;-89
2022/08/07 07:01:36;;;;;;;8.07;4.72;;;;;;;15.78;63.59;101962.63;4916318;29;20554;-86
2022/08/07 07:04:05;;;;;;;6.03;4.55;;;;;;;15.92;63.01;101965.16;4910197;29;20539;-87
2022/08/07 07:06:33;;;;;;;5.38;4.72;;;;;;;16.15;62.26;101970.19;4911760;29;20082;-83
2022/08/07 07:09:27;;;;;;;8.68;4.93;;;;;;;16.61;59.90;101968.75;4909515;29;20099;-94
2022/08/07 07:12:37;;;;;;;5.13;4.63;;;;;;;17.10;59.06;101968.09;4929434;29;20044;-87
2022/08/07 07:15:17;;;;;;;5.13;4.18;;;;;;;17.76;57.39;101965.28;4910491;29;20070;-85
2022/08/07 07:18:12;;;;;;;5.03;4.32;;;;;;;18.50;54.55;101955.91;4929168;29;20066;-85
2022/08/07 07:20:46;;;;;;;6.13;4.35;;;;;;;19.15;53.41;101958.00;4928756;29;20645;-89
2022/08/07 07:23:14;;;;;;;3.97;3.60;;;;;;;19.64;52.46;101950.56;4913291;29;20366;-88
2022/08/07 07:25:43;;;;;;;4.30;3.60;;;;;;;20.16;51.26;101956.28;4908615;29;20043;-84
2022/08/07 07:28:25;;;;;;;4.57;3.63;;;;;;;20.74;49.24;101946.66;4907745;29;20047;-84
2022/08/07 07:31:00;;;;;;;6.47;4.13;;;;;;;21.34;47.96;101952.72;4928872;29;20506;-83
2022/08/07 07:33:30;;;;;;;5.10;4.57;;;;;;;21.58;46.90;101942.19;4910476;29;20059;-85
2022/08/07 07:35:57;;;;;;;5.93;3.92;;;;;;;21.85;46.57;101943.00;4924723;29;20457;-85
2022/08/07 07:38:25;;;;;;;4.45;4.05;;;;;;;22.22;45.46;101944.31;4923420;29;20444;-86
2022/08/07 07:40:58;;;;;;;6.00;4.22;;;;;;;22.53;44.55;101940.50;4909382;29;20562;-83
2022/08/07 07:43:27;;;;;;;5.25;4.75;;;;;;;22.82;43.45;101940.28;4928020;29;20051;-86
2022/08/07 07:45:54;;;;;;;3.72;3.40;;;;;;;23.02;42.84;101939.47;4925749;29;20482;-91
2022/08/07 07:48:23;;;;;;;5.15;4.38;;;;;;;23.37;41.97;101929.16;4910880;29;20031;-85
2022/08/07 07:50:52;;;;;;;4.32;3.92;;;;;;;23.81;41.23;101938.88;4907386;29;20063;-87
2022/08/07 07:53:22;;;;;;;4.45;4.05;;;;;;;24.06;39.65;101938.66;4911792;29;20055;-85
2022/08/07 07:55:52;;;;;;;5.65;3.85;;;;;;;24.30;39.89;101939.34;4905824;29;20052;-87
2022/08/07 07:58:19;;;;;;;5.13;4.00;;;;;;;24.68;38.86;101934.00;4922630;29;20051;-87
2022/08/07 08:00:46;;;;;;;5.18;3.90;;;;;;;25.04;37.83;101929.59;4898022;29;20071;-83
2022/08/07 08:03:17;;;;;;;5.93;3.78;;;;;;;25.30;37.88;101933.63;4945619;28;20613;-93
2022/08/07 08:05:44;;;;;;;8.38;4.47;;;;;;;25.38;36.35;101928.78;4935339;29;20373;-84
2022/08/07 08:08:12;;;;;;;3.72;3.42;;;;;;;25.42;37.14;101922.31;4898660;29;20139;-86
2022/08/07 08:10:39;;;;;;;4.25;3.85;;;;;;;25.75;36.98;101923.31;4914525;29;20048;-84
2022/08/07 08:13:08;;;;;;;3.85;3.00;;;;;;;26.32;35.60;101917.59;4914435;29;20052;-83
2022/08/07 08:15:40;;;;;;;5.65;3.00;;;;;;;26.65;34.83;101907.69;4929833;29;20550;-89
2022/08/07 08:18:10;;;;;;;3.95;3.47;;;;;;;26.96;34.39;101908.63;4913373;29;20052;-84
2022/08/07 08:20:40;;;;;;;3.65;3.38;;;;;;;27.30;33.71;101907.53;4891981;29;20047;-87
2022/08/07 08:28:45;;;;;;;3.78;3.47;;;;;;;27.42;32.61;101900.56;4914169;29;20086;-86
2022/08/07 08:31:17;;;;;;;3.67;3.05;;;;;;;27.20;31.82;101901.81;4902656;29;20047;-88
2022/08/07 08:33:46;;;;;;;3.55;3.05;;;;;;;27.19;32.96;101902.75;4943296;29;20091;-90
2022/08/07 08:36:15;;;;;;;3.72;3.15;;;;;;;28.04;31.91;101907.53;4927521;29;20059;-87
2022/08/07 08:38:45;;;;;;;3.58;3.28;;;;;;;28.80;31.09;101905.38;4899415;29;20578;-84
2022/08/07 08:41:30;;;;;;;2.70;2.47;;;;;;;29.30;29.45;101911.91;4909937;29;20054;-86
2022/08/07 08:44:13;;;;;;;3.08;2.78;;;;;;;29.65;28.53;101900.50;4926556;29;20134;-86
2022/08/07 08:46:57;;;;;;;2.63;2.33;;;;;;;30.00;28.64;101899.00;4927737;29;20044;-90
2022/08/07 08:49:40;;;;;;;1.55;1.45;;;;;;;30.40;27.29;101906.88;4903251;29;20231;-86
2022/08/07 08:52:26;;;;;;;3.13;1.98;;;;;;;30.51;26.21;101893.47;4925276;29;20040;-89
2022/08/07 08:55:13;;;;;;;1.30;1.30;;;;;;;30.75;26.31;101903.44;4906790;29;20114;-87
2022/08/07 08:57:58;;;;;;;1.58;1.17;;;;;;;31.07;25.19;101897.47;4927158;29;20752;-86
2022/08/07 09:00:34;;;;;;;1.70;1.60;;;;;;;31.16;25.70;101899.44;4914345;29;20044;-89
2022/08/07 09:03:15;;;;;;;1.90;1.58;;;;;;;31.13;25.40;101894.28;4909600;29;20061;-84
2022/08/07 09:05:54;;;;;;;1.95;1.88;;;;;;;31.00;25.76;101893.44;4911705;29;20050;-84
2022/08/07 09:09:00;;;;;;;2.25;1.88;;;;;;;31.08;24.81;101895.59;4912688;29;20120;-90
2022/08/07 09:11:55;;;;;;;1.75;1.65;;;;;;;31.40;24.43;101889.56;4910043;29;20047;-86
2022/08/07 09:14:39;;;;;;;1.20;1.00;;;;;;;31.66;24.79;101890.22;4906969;29;20051;-86
2022/08/07 09:17:54;;;;;;;1.20;1.10;;;;;;;32.30;23.14;101894.16;4925906;29;20040;-90
2022/08/07 09:20:46;;;;;;;1.42;1.27;;;;;;;32.32;23.38;101889.47;4904035;29;20135;-86
2022/08/07 09:23:29;;;;;;;1.27;1.13;;;;;;;32.60;22.88;101887.19;4910531;29;20138;-88
2022/08/07 09:26:21;;;;;;;1.42;1.27;;;;;;;33.27;21.85;101880.63;4912608;29;20095;-91
2022/08/07 09:28:55;;;;;;;0.70;0.70;;;;;;;33.55;21.91;101882.78;4908218;29;20056;-83
2022/08/07 09:31:44;;;;;;;2.22;1.05;;;;;;;33.62;21.98;101876.69;4920361;29;20054;-86
2022/08/07 09:34:58;;;;;;;1.60;1.05;;;;;;;34.01;21.39;101872.44;4922331;29;20074;-87
2022/08/07 09:37:36;;;;;;;1.95;0.80;;;;;;;33.89;21.68;101874.38;4918175;29;20079;-87
2022/08/07 09:40:28;;;;;;;0.90;0.65;;;;;;;33.96;20.57;101870.97;4941742;29;20043;-91
2022/08/07 09:43:06;;;;;;;;;;;;;;;34.20;20.21;101864.31;4921273;29;20044;-90
2022/08/07 09:45:47;;;;;;;1.15;0.80;;;;;;;34.40;19.92;101867.09;4935478;29;19966;-87
2022/08/07 09:48:23;;;;;;;0.90;0.88;;;;;;;34.16;20.24;101867.44;4926079;29;20044;-87
2022/08/07 09:51:18;;;;;;;1.60;0.77;;;;;;;33.91;20.47;101861.50;4940625;29;20047;-84
2022/08/07 09:53:47;;;;;;;0.55;0.47;;;;;;;33.69;20.88;101859.81;4938784;29;20055;-83
2022/08/07 09:56:58;;;;;;;1.00;1.00;;;;;;;33.82;20.78;101857.78;4920794;29;20074;-93
2022/08/07 09:59:52;;;;;;;0.60;0.60;;;;;;;33.97;20.34;101856.41;4948005;29;20051;-90
2022/08/07 10:03:04;;;;;;;1.55;0.60;;;;;;;34.17;20.27;101848.31;4949298;29;20201;-84
2022/08/07 10:06:10;;;;;;;2.03;0.88;;;;;;;34.87;19.75;101840.06;4924848;29;20051;-85
2022/08/07 10:08:54;;;;;;;0.73;0.73;;;;;;;35.52;18.94;101841.25;4930141;29;20054;-84
2022/08/07 10:11:55;;;;;;;3.25;2.97;;;;;;;35.57;18.52;101841.66;4934895;29;20499;-87
2022/08/07 10:14:56;;;;;;;1.80;0.90;;;;;;;35.85;18.96;101847.97;4930486;29;20079;-84
2022/08/07 10:18:08;;;;;;;1.10;0.75;;;;;;;36.35;18.08;101835.78;4921330;29;20048;-84
2022/08/07 10:21:07;;;;;;;1.35;0.50;;;;;;;36.95;17.54;101834.28;4935729;29;20056;-83
2022/08/07 10:24:24;;;;;;;1.23;1.17;;;;;;;37.39;16.76;101830.66;4934276;29;20044;-87
2022/08/07 10:27:28;;;;;;;0.57;0.57;;;;;;;38.18;17.10;101831.31;4931840;29;20107;-84
2022/08/07 10:30:08;;;;;;;0.98;0.60;;;;;;;38.81;15.19;101830.88;4908793;29;20103;-84
2022/08/07 10:33:20;;;;;;;1.55;0.50;;;;;;;37.00;16.58;101831.06;4939559;29;20079;-86
2022/08/07 10:36:27;;;;;;;0.73;0.70;;;;;;;33.47;19.66;101830.03;4904047;29;20216;-86
2022/08/07 10:39:16;;;;;;;1.23;0.52;;;;;;;32.95;20.78;101829.13;4938338;29;20115;-86
2022/08/07 10:41:53;;;;;;;1.38;0.60;;;;;;;34.62;19.27;101823.31;4916266;29;20059;-83
2022/08/07 10:44:29;;;;;;;1.90;0.50;;;;;;;36.16;17.95;101817.66;4913367;29;20044;-84
2022/08/07 10:47:43;;;;;;;0.73;0.73;;;;;;;37.07;17.13;101822.06;4904058;29;20495;-83
2022/08/07 10:50:27;;;;;;;0.60;0.52;;;;;;;37.84;16.63;101806.81;4928650;29;20059;-83
2022/08/07 10:53:07;;;;;;;0.68;0.55;;;;;;;38.45;16.13;101814.78;4932929;29;20686;-91
2022/08/07 10:56:20;;;;;;;4.07;0.88;;;;;;;38.21;15.43;101808.22;4908500;29;20062;-86
2022/08/07 10:59:08;;;;;;;;;;;;;;;37.90;16.03;101812.47;4930719;29;20052;-84
2022/08/07 11:01:51;;;;;;;0.57;0.57;;;;;;;38.47;15.57;101801.78;4920740;29;20294;-88
2022/08/07 11:04:44;;;;;;;0.50;0.50;;;;;;;38.09;16.07;101799.50;4901909;29;20063;-88
2022/08/07 11:07:55;;;;;;;0.30;0.30;;;;;;;36.87;16.78;101785.97;4913044;29;20792;-89
2022/08/07 11:10:50;;;;;;;1.95;0.60;;;;;;;35.44;17.74;101784.81;4929838;29;20363;-85
2022/08/07 11:13:25;;;;;;;0.82;0.38;;;;;;;32.68;19.85;101789.78;4901556;29;20057;-84
2022/08/07 11:16:01;;;;;;;0.32;0.32;;;;;;;32.71;20.29;101783.25;4916815;29;20040;-90
2022/08/07 11:18:39;;;;;;;1.30;0.47;;;;;;;34.83;18.55;101777.94;4904967;29;20043;-87
2022/08/07 11:21:29;;;;;;;1.52;0.70;;;;;;;37.09;16.75;101778.22;4931261;29;20044;-86
2022/08/07 11:24:22;;;;;;;1.15;0.60;;;;;;;37.51;16.20;101774.72;4918608;29;20097;-84
2022/08/07 11:26:57;;;;;;;1.23;0.90;;;;;;;35.13;18.30;101771.41;4928762;29;20048;-88
2022/08/07 11:29:45;;;;;;;1.95;0.55;;;;;;;33.25;19.68;101765.06;4913295;29;20047;-91
2022/08/07 11:32:22;;;;;;;0.60;0.60;;;;;;;31.64;21.11;101765.84;4936838;29;20054;-84
2022/08/07 11:35:03;;;;;;;3.20;0.60;;;;;;;30.35;22.44;101765.88;4929415;29;20038;-87
2022/08/07 11:38:01;;;;;;;1.27;0.80;;;;;;;29.75;23.71;101762.22;4931855;29;20097;-84
2022/08/07 11:40:55;;;;;;;1.05;0.73;;;;;;;29.00;23.86;101759.34;4922462;29;20044;-83
2022/08/07 11:43:27;;;;;;;0.50;0.50;;;;;;;28.22;24.96;101762.81;4935557;29;20129;-88
2022/08/07 11:46:37;;;;;;;0.70;0.70;;;;;;;28.30;25.49;101757.78;4936552;29;20143;-83
2022/08/07 11:49:24;;;;;;;1.75;0.70;;;;;;;29.24;24.06;101750.50;4947089;29;20099;-89
2022/08/07 11:52:27;;;;;;;0.57;0.40;;;;;;;31.60;21.86;101756.22;4943029;29;20048;-83
2022/08/07 11:55:12;;;;;;;0.50;0.50;;;;;;;34.49;18.93;101735.75;4924241;29;20052;-84
2022/08/07 11:58:11;;;;;;;0.40;0.40;;;;;;;36.05;17.23;101734.28;4899571;29;20701;-84
2022/08/07 12:01:02;;;;;;;1.48;0.60;;;;;;;37.37;16.91;101734.41;4898444;29;20056;-86
2022/08/07 12:03:58;;;;;;;0.80;0.80;;;;;;;39.04;15.85;101729.72;4894012;29;20048;-85
2022/08/07 12:06:49;;;;;;;7.72;6.43;;;;;;;40.21;14.18;101736.31;4895611;29;20144;-83
2022/08/07 12:09:28;;;;;;;1.43;0.70;;;;;;;40.45;14.34;101732.50;4882538;29;20048;-89